createdAt,value
2018-11-27T00:00:32.724Z,10.26
2018-11-27T00:01:32.740Z,10.25
2018-11-27T00:02:32.751Z,10.24
2018-11-27T00:03:32.778Z,10.30
2018-11-27T00:04:32.774Z,9.94
2018-11-27T00:05:32.795Z,10.17
2018-11-27T00:06:32.813Z,10.34
2018-11-27T00:07:32.829Z,10.44
2018-11-27T00:08:32.836Z,10.40
2018-11-27T00:09:32.868Z,10.30
2018-11-27T00:10:32.864Z,10.44
2018-11-27T00:11:32.890Z,10.44
2018-11-27T00:12:32.932Z,10.51
2018-11-27T00:13:32.917Z,10.47
2018-11-27T00:14:32.981Z,10.52
2018-11-27T00:15:32.965Z,10.42
2018-11-27T00:16:32.952Z,10.51
2018-11-27T00:17:32.973Z,10.46
2018-11-27T00:18:32.989Z,10.42
2018-11-27T00:19:33.014Z,10.07
2018-11-27T00:20:33.033Z,10.36
2018-11-27T00:21:33.045Z,10.14
2018-11-27T00:22:33.050Z,9.71
2018-11-27T00:23:33.063Z,10.04
2018-11-27T00:24:33.080Z,10.10
2018-11-27T00:25:33.227Z,10.09
2018-11-27T00:26:33.115Z,10.28
2018-11-27T00:27:33.120Z,10.37
2018-11-27T00:28:33.135Z,10.09
2018-11-27T00:29:33.146Z,9.79
2018-11-27T00:30:33.169Z,10.17
2018-11-27T00:31:33.176Z,10.25
2018-11-27T00:32:33.214Z,10.32
2018-11-27T00:33:33.214Z,10.15
2018-11-27T00:34:33.222Z,9.97
2018-11-27T00:35:33.239Z,9.93
2018-11-27T00:36:33.248Z,9.88
2018-11-27T00:37:33.275Z,10.12
2018-11-27T00:38:33.285Z,10.19
2018-11-27T00:39:33.294Z,10.32
2018-11-27T00:40:33.340Z,10.30
2018-11-27T00:41:33.329Z,10.10
2018-11-27T00:42:33.392Z,10.32
2018-11-27T00:43:33.356Z,10.36
2018-11-27T00:44:33.391Z,10.39
2018-11-27T00:45:33.399Z,10.21
2018-11-27T00:46:33.410Z,10.09
2018-11-27T00:47:33.412Z,10.24
2018-11-27T00:48:33.429Z,10.32
2018-11-27T00:49:33.452Z,10.32
2018-11-27T00:50:33.468Z,10.26
2018-11-27T00:51:33.470Z,10.40
2018-11-27T00:52:33.499Z,10.40
2018-11-27T00:53:33.504Z,10.44
2018-11-27T00:54:33.526Z,10.39
2018-11-27T00:55:33.573Z,10.33
2018-11-27T00:56:33.550Z,10.28
2018-11-27T00:57:33.564Z,10.33
2018-11-27T00:58:33.574Z,10.24
2018-11-27T00:59:33.630Z,10.26
2018-11-27T01:00:33.606Z,10.46
2018-11-27T01:01:33.623Z,10.39
2018-11-27T01:02:33.643Z,10.24
2018-11-27T01:03:33.649Z,10.24
2018-11-27T01:04:33.665Z,9.94
2018-11-27T01:05:33.681Z,9.75
2018-11-27T01:06:33.697Z,9.73
2018-11-27T01:07:33.704Z,9.66
2018-11-27T01:08:33.720Z,9.81
2018-11-27T01:09:33.774Z,9.93
2018-11-27T01:10:33.821Z,9.86
2018-11-27T01:11:33.771Z,10.04
2018-11-27T01:13:33.798Z,9.94
2018-11-27T01:14:33.811Z,10.03
2018-11-27T01:15:33.831Z,10.12
2018-11-27T01:16:54.869Z,10.24
2018-11-27T01:17:33.864Z,10.28
2018-11-27T01:18:33.884Z,10.32
2018-11-27T01:19:33.908Z,10.30
2018-11-27T01:20:33.915Z,10.22
2018-11-27T01:21:33.927Z,10.19
2018-11-27T01:22:33.940Z,9.93
2018-11-27T01:23:33.955Z,9.82
2018-11-27T01:24:33.973Z,10.00
2018-11-27T01:25:33.990Z,10.17
2018-11-27T01:26:34.000Z,9.79
2018-11-27T01:27:34.098Z,9.94
2018-11-27T01:28:34.026Z,10.06
2018-11-27T01:29:34.047Z,10.24
2018-11-27T01:30:34.061Z,10.28
2018-11-27T01:31:34.072Z,10.00
2018-11-27T01:32:34.120Z,9.67
2018-11-27T01:33:34.102Z,9.60
2018-11-27T01:34:34.146Z,9.83
2018-11-27T01:35:34.134Z,9.94
2018-11-27T01:36:34.200Z,10.09
2018-11-27T01:37:34.160Z,10.12
2018-11-27T01:38:34.180Z,10.09
2018-11-27T01:39:34.191Z,10.17
2018-11-27T01:40:34.228Z,10.17
2018-11-27T01:41:34.224Z,10.12
2018-11-27T01:42:34.245Z,10.15
2018-11-27T01:43:34.265Z,10.17
2018-11-27T01:44:34.329Z,10.37
2018-11-27T01:45:34.281Z,10.30
2018-11-27T01:46:34.306Z,10.39
2018-11-27T01:47:34.313Z,10.06
2018-11-27T01:48:34.342Z,9.97
2018-11-27T01:49:34.349Z,9.94
2018-11-27T01:50:34.361Z,10.00
2018-11-27T01:51:34.379Z,9.88
2018-11-27T01:52:34.393Z,9.97
2018-11-27T01:53:34.403Z,9.93
2018-11-27T01:54:34.417Z,9.96
2018-11-27T01:55:34.530Z,9.94
2018-11-27T01:56:34.451Z,9.93
2018-11-27T01:57:34.460Z,10.15
2018-11-27T01:58:34.492Z,10.25
2018-11-27T01:59:34.495Z,10.26
2018-11-27T02:00:34.508Z,10.30
2018-11-27T02:01:34.534Z,10.17
2018-11-27T02:02:34.535Z,10.04
2018-11-27T02:03:34.557Z,9.96
2018-11-27T02:04:34.579Z,10.09
2018-11-27T02:05:34.582Z,10.00
2018-11-27T02:06:34.600Z,10.18
2018-11-27T02:07:34.621Z,10.30
2018-11-27T02:08:34.631Z,10.34
2018-11-27T02:09:34.651Z,10.15
2018-11-27T02:10:34.675Z,9.94
2018-11-27T02:11:34.696Z,9.78
2018-11-27T02:12:34.694Z,10.14
2018-11-27T02:13:34.699Z,10.26
2018-11-27T02:14:34.754Z,9.91
2018-11-27T02:15:34.730Z,10.21
2018-11-27T02:16:34.748Z,10.12
2018-11-27T02:17:34.768Z,10.15
2018-11-27T02:18:34.778Z,9.94
2018-11-27T02:19:34.798Z,9.82
2018-11-27T02:20:34.811Z,10.04
2018-11-27T02:21:34.825Z,10.18
2018-11-27T02:22:34.835Z,10.14
2018-11-27T02:23:34.851Z,10.30
2018-11-27T02:24:34.863Z,9.96
2018-11-27T02:25:34.888Z,9.93
2018-11-27T02:26:34.901Z,10.17
2018-11-27T02:27:34.915Z,10.24
2018-11-27T02:28:34.924Z,10.32
2018-11-27T02:29:34.967Z,10.26
2018-11-27T02:30:34.953Z,10.22
2018-11-27T02:31:34.979Z,9.78
2018-11-27T02:33:35.026Z,10.15
2018-11-27T02:34:35.025Z,10.18
2018-11-27T02:35:35.038Z,10.04
2018-11-27T02:36:35.040Z,10.06
2018-11-27T02:37:35.060Z,9.57
2018-11-27T02:38:35.077Z,9.52
2018-11-27T02:39:35.095Z,9.35
2018-11-27T02:40:35.172Z,9.30
2018-11-27T02:41:35.119Z,9.66
2018-11-27T02:42:35.133Z,9.91
2018-11-27T02:43:35.158Z,10.07
2018-11-27T02:44:35.169Z,10.19
2018-11-27T02:46:35.191Z,10.17
2018-11-27T02:47:35.208Z,10.14
2018-11-27T02:48:35.217Z,10.00
2018-11-27T02:49:35.238Z,10.10
2018-11-27T02:50:35.249Z,10.15
2018-11-27T02:51:35.264Z,10.22
2018-11-27T02:52:35.311Z,10.10
2018-11-27T02:53:35.440Z,10.01
2018-11-27T02:54:35.313Z,10.01
2018-11-27T02:55:35.328Z,10.03
2018-11-27T02:56:35.380Z,10.18
2018-11-27T02:57:35.360Z,9.64
2018-11-27T02:58:35.368Z,9.76
2018-11-27T02:59:35.387Z,9.86
2018-11-27T03:00:35.455Z,10.07
2018-11-27T03:01:35.414Z,10.06
2018-11-27T03:02:35.425Z,10.03
2018-11-27T03:03:35.445Z,10.19
2018-11-27T03:04:35.451Z,10.19
2018-11-27T03:05:35.469Z,10.19
2018-11-27T03:06:35.484Z,10.10
2018-11-27T03:07:35.501Z,10.15
2018-11-27T03:08:35.540Z,10.10
2018-11-27T03:09:35.535Z,9.83
2018-11-27T03:10:35.565Z,9.81
2018-11-27T03:11:35.566Z,9.94
2018-11-27T03:12:35.588Z,9.91
2018-11-27T03:13:35.586Z,9.93
2018-11-27T03:14:35.617Z,9.94
2018-11-27T03:15:35.618Z,9.63
2018-11-27T03:16:35.630Z,9.43
2018-11-27T03:17:35.661Z,9.73
2018-11-27T03:18:35.661Z,9.63
2018-11-27T03:19:35.693Z,9.68
2018-11-27T03:20:35.692Z,9.46
2018-11-27T03:21:35.720Z,9.52
2018-11-27T03:22:35.733Z,9.63
2018-11-27T03:23:35.752Z,9.73
2018-11-27T03:24:35.750Z,9.67
2018-11-27T03:25:35.811Z,9.85
2018-11-27T03:26:35.773Z,9.93
2018-11-27T03:27:56.809Z,9.79
2018-11-27T03:28:35.814Z,9.99
2018-11-27T03:29:35.833Z,10.07
2018-11-27T03:30:35.834Z,10.10
2018-11-27T03:31:35.936Z,10.14
2018-11-27T03:32:35.866Z,10.19
2018-11-27T03:33:35.888Z,10.17
2018-11-27T03:34:35.894Z,9.91
2018-11-27T03:35:35.911Z,9.99
2018-11-27T03:36:35.938Z,9.71
2018-11-27T03:37:35.939Z,9.94
2018-11-27T03:38:36.087Z,9.70
2018-11-27T03:39:35.974Z,9.63
2018-11-27T03:41:35.996Z,9.73
2018-11-27T03:42:36.020Z,9.76
2018-11-27T03:43:36.032Z,9.79
2018-11-27T03:44:36.054Z,9.79
2018-11-27T03:45:36.058Z,9.94
2018-11-27T03:46:36.078Z,9.78
2018-11-27T03:47:36.093Z,10.07
2018-11-27T03:48:36.103Z,9.81
2018-11-27T03:49:36.116Z,9.86
2018-11-27T03:50:36.140Z,9.91
2018-11-27T03:51:36.147Z,9.88
2018-11-27T03:52:36.161Z,9.85
2018-11-27T03:53:36.195Z,9.97
2018-11-27T03:54:36.196Z,10.04
2018-11-27T03:55:36.259Z,10.14
2018-11-27T03:56:36.224Z,10.18
2018-11-27T03:57:36.235Z,9.71
2018-11-27T03:58:36.254Z,9.88
2018-11-27T03:59:36.273Z,9.99
2018-11-27T04:00:36.287Z,10.15
2018-11-27T04:01:36.297Z,9.83
2018-11-27T04:02:36.317Z,10.01
2018-11-27T04:03:36.324Z,9.91
2018-11-27T04:04:36.344Z,9.63
2018-11-27T04:05:36.350Z,9.75
2018-11-27T04:06:36.361Z,9.93
2018-11-27T04:07:36.385Z,9.99
2018-11-27T04:08:36.405Z,9.61
2018-11-27T04:09:36.404Z,9.71
2018-11-27T04:10:36.437Z,9.75
2018-11-27T04:11:36.446Z,9.78
2018-11-27T04:12:36.485Z,10.00
2018-11-27T04:13:36.466Z,10.09
2018-11-27T04:14:36.493Z,9.99
2018-11-27T04:15:36.493Z,9.91
2018-11-27T04:16:36.514Z,9.75
2018-11-27T04:17:36.528Z,9.93
2018-11-27T04:18:36.542Z,9.71
2018-11-27T04:19:36.553Z,9.32
2018-11-27T04:20:36.584Z,9.50
2018-11-27T04:21:36.584Z,9.31
2018-11-27T04:23:36.653Z,9.71
2018-11-27T04:24:36.634Z,9.81
2018-11-27T04:25:36.644Z,9.78
2018-11-27T04:26:36.650Z,9.83
2018-11-27T04:27:36.672Z,9.86
2018-11-27T04:29:36.706Z,9.68
2018-11-27T04:30:36.712Z,9.97
2018-11-27T04:31:36.729Z,9.85
2018-11-27T04:32:36.745Z,9.71
2018-11-27T04:33:36.756Z,9.68
2018-11-27T04:34:36.772Z,9.85
2018-11-27T04:35:36.788Z,9.63
2018-11-27T04:36:36.819Z,9.73
2018-11-27T04:37:36.813Z,9.68
2018-11-27T04:38:36.827Z,9.75
2018-11-27T04:39:36.844Z,9.86
2018-11-27T04:40:36.894Z,9.94
2018-11-27T04:41:36.914Z,9.91
2018-11-27T04:42:36.889Z,10.03
2018-11-27T04:43:36.907Z,10.04
2018-11-27T04:44:36.918Z,10.03
2018-11-27T04:45:36.934Z,10.12
2018-11-27T04:46:36.950Z,9.78
2018-11-27T04:47:36.966Z,9.58
2018-11-27T04:48:36.987Z,9.70
2018-11-27T04:49:36.999Z,9.99
2018-11-27T04:50:37.011Z,9.94
2018-11-27T04:51:37.020Z,9.76
2018-11-27T04:52:37.036Z,9.81
2018-11-27T04:53:37.063Z,9.78
2018-11-27T04:54:37.066Z,9.52
2018-11-27T04:55:37.130Z,9.53
2018-11-27T04:56:37.093Z,9.12
2018-11-27T04:57:37.107Z,9.25
2018-11-27T04:58:37.119Z,9.60
2018-11-27T04:59:37.147Z,9.64
2018-11-27T05:00:37.155Z,9.78
2018-11-27T05:01:37.173Z,9.70
2018-11-27T05:02:37.194Z,9.81
2018-11-27T05:03:37.248Z,9.66
2018-11-27T05:04:37.213Z,9.38
2018-11-27T05:05:37.235Z,9.27
2018-11-27T05:06:37.238Z,9.40
2018-11-27T05:07:37.262Z,9.58
2018-11-27T05:08:37.358Z,9.60
2018-11-27T05:09:37.316Z,9.48
2018-11-27T05:10:37.294Z,9.60
2018-11-27T05:11:37.312Z,9.70
2018-11-27T05:12:37.417Z,9.81
2018-11-27T05:13:37.353Z,9.97
2018-11-27T05:14:37.423Z,9.94
2018-11-27T05:15:37.428Z,9.96
2018-11-27T05:16:37.382Z,10.09
2018-11-27T05:17:37.401Z,10.03
2018-11-27T05:18:37.415Z,9.78
2018-11-27T05:19:37.469Z,9.82
2018-11-27T05:20:37.478Z,9.78
2018-11-27T05:21:37.483Z,9.91
2018-11-27T05:22:37.504Z,9.91
2018-11-27T05:23:37.483Z,9.97
2018-11-27T05:24:37.497Z,9.94
2018-11-27T05:26:37.528Z,9.83
2018-11-27T05:27:37.547Z,9.86
2018-11-27T05:28:37.555Z,9.97
2018-11-27T05:29:37.584Z,9.91
2018-11-27T05:30:37.584Z,9.71
2018-11-27T05:31:37.601Z,9.49
2018-11-27T05:32:37.611Z,9.53
2018-11-27T05:33:37.647Z,9.70
2018-11-27T05:34:37.654Z,9.38
2018-11-27T05:35:37.661Z,9.38
2018-11-27T05:36:37.677Z,9.58
2018-11-27T05:37:37.689Z,9.60
2018-11-27T05:38:37.716Z,9.67
2018-11-27T05:39:37.718Z,9.39
2018-11-27T05:40:37.737Z,9.38
2018-11-27T05:41:37.748Z,9.34
2018-11-27T05:42:37.795Z,9.20
2018-11-27T05:43:37.771Z,9.05
2018-11-27T05:44:37.788Z,9.27
2018-11-27T05:45:37.803Z,9.34
2018-11-27T05:46:37.817Z,9.57
2018-11-27T05:47:37.885Z,9.46
2018-11-27T05:48:37.853Z,9.60
2018-11-27T05:49:37.875Z,9.71
2018-11-27T05:50:37.895Z,9.63
2018-11-27T05:51:37.891Z,9.25
2018-11-27T05:52:37.907Z,9.25
2018-11-27T05:53:38.039Z,9.16
2018-11-27T05:54:37.954Z,9.10
2018-11-27T05:55:37.954Z,8.96
2018-11-27T05:56:37.965Z,9.24
2018-11-27T05:57:37.979Z,9.46
2018-11-27T05:58:38.008Z,9.63
2018-11-27T05:59:38.027Z,9.78
2018-11-27T06:00:38.027Z,9.82
2018-11-27T06:01:38.034Z,9.70
2018-11-27T06:02:38.049Z,9.63
2018-11-27T06:03:38.070Z,9.46
2018-11-27T06:04:38.080Z,9.49
2018-11-27T06:05:38.099Z,9.42
2018-11-27T06:07:38.127Z,8.97
2018-11-27T06:08:38.146Z,9.20
2018-11-27T06:09:38.156Z,8.97
2018-11-27T06:10:38.196Z,9.12
2018-11-27T06:11:38.195Z,9.21
2018-11-27T06:12:38.216Z,9.21
2018-11-27T06:13:38.218Z,9.24
2018-11-27T06:14:38.232Z,9.10
2018-11-27T06:15:38.242Z,9.42
2018-11-27T06:16:38.264Z,9.58
2018-11-27T06:17:38.268Z,9.56
2018-11-27T06:18:38.288Z,9.48
2018-11-27T06:19:38.310Z,9.58
2018-11-27T06:20:38.330Z,9.31
2018-11-27T06:21:38.328Z,9.09
2018-11-27T06:22:38.348Z,9.27
2018-11-27T06:23:38.364Z,9.53
2018-11-27T06:24:38.373Z,9.57
2018-11-27T06:25:38.394Z,9.67
2018-11-27T06:26:38.427Z,9.66
2018-11-27T06:27:38.458Z,9.58
2018-11-27T06:28:38.431Z,9.53
2018-11-27T06:29:38.449Z,9.49
2018-11-27T06:30:38.462Z,9.64
2018-11-27T06:31:38.479Z,9.60
2018-11-27T06:32:38.523Z,9.67
2018-11-27T06:33:38.524Z,9.57
2018-11-27T06:34:38.519Z,9.70
2018-11-27T06:35:38.530Z,9.35
2018-11-27T06:36:38.548Z,9.60
2018-11-27T06:37:38.581Z,9.38
2018-11-27T06:38:38.664Z,9.10
2018-11-27T06:39:38.597Z,9.21
2018-11-27T06:40:38.608Z,9.38
2018-11-27T06:41:38.624Z,9.30
2018-11-27T06:42:38.644Z,9.48
2018-11-27T06:43:38.650Z,9.64
2018-11-27T06:44:38.666Z,9.63
2018-11-27T06:45:38.675Z,9.35
2018-11-27T06:46:38.699Z,9.05
2018-11-27T06:47:38.707Z,9.50
2018-11-27T06:48:38.731Z,9.46
2018-11-27T06:49:38.741Z,9.39
2018-11-27T06:50:38.759Z,9.13
2018-11-27T06:51:38.760Z,8.90
2018-11-27T06:52:38.783Z,9.32
2018-11-27T06:53:38.820Z,9.48
2018-11-27T06:54:38.823Z,9.48
2018-11-27T06:55:38.876Z,9.15
2018-11-27T06:56:38.839Z,9.18
2018-11-27T06:57:38.860Z,9.27
2018-11-27T06:58:38.870Z,9.49
2018-11-27T06:59:38.881Z,9.34
2018-11-27T07:00:38.893Z,8.96
2018-11-27T07:01:38.918Z,8.83
2018-11-27T07:02:38.926Z,9.09
2018-11-27T07:03:38.944Z,9.32
2018-11-27T07:04:38.951Z,9.20
2018-11-27T07:05:38.969Z,9.43
2018-11-27T07:06:38.982Z,9.50
2018-11-27T07:07:39.004Z,9.73
2018-11-27T07:08:39.026Z,9.49
2018-11-27T07:09:39.027Z,9.42
2018-11-27T07:10:39.053Z,8.93
2018-11-27T07:11:39.055Z,8.96
2018-11-27T07:12:39.104Z,9.12
2018-11-27T07:13:39.091Z,8.91
2018-11-27T07:14:39.098Z,8.96
2018-11-27T07:15:39.120Z,9.27
2018-11-27T07:16:39.150Z,9.30
2018-11-27T07:17:39.150Z,9.30
2018-11-27T07:18:39.158Z,9.06
2018-11-27T07:19:39.168Z,9.39
2018-11-27T07:20:39.184Z,9.42
2018-11-27T07:21:39.203Z,9.45
2018-11-27T07:22:39.220Z,9.23
2018-11-27T07:23:39.249Z,9.39
2018-11-27T07:24:39.252Z,9.38
2018-11-27T07:25:39.256Z,9.58
2018-11-27T07:26:39.277Z,9.61
2018-11-27T07:27:39.300Z,9.73
2018-11-27T07:28:39.305Z,9.68
2018-11-27T07:29:39.340Z,9.83
2018-11-27T07:30:39.332Z,9.82
2018-11-27T07:31:39.350Z,9.67
2018-11-27T07:32:39.364Z,9.42
2018-11-27T07:33:39.377Z,9.10
2018-11-27T07:34:39.395Z,8.90
2018-11-27T07:35:39.406Z,9.24
2018-11-27T07:36:39.420Z,9.38
2018-11-27T07:37:39.435Z,9.39
2018-11-27T07:38:39.449Z,9.38
2018-11-27T07:39:39.472Z,9.25
2018-11-27T07:40:39.542Z,9.35
2018-11-27T07:41:39.529Z,9.06
2018-11-27T07:42:39.511Z,9.15
2018-11-27T07:43:39.529Z,9.05
2018-11-27T07:44:39.537Z,9.18
2018-11-27T07:45:39.560Z,9.25
2018-11-27T07:46:39.564Z,9.21
2018-11-27T07:47:39.582Z,9.01
2018-11-27T07:48:39.593Z,8.97
2018-11-27T07:49:39.612Z,9.05
2018-11-27T07:50:39.635Z,9.20
2018-11-27T07:51:39.639Z,9.58
2018-11-27T07:52:39.651Z,9.27
2018-11-27T07:53:39.671Z,9.39
2018-11-27T07:54:39.684Z,9.42
2018-11-27T07:55:39.701Z,9.16
2018-11-27T07:56:39.713Z,9.27
2018-11-27T07:57:39.740Z,9.50
2018-11-27T07:58:39.752Z,9.73
2018-11-27T07:59:39.768Z,9.73
2018-11-27T08:02:39.804Z,8.91
2018-11-27T08:03:39.819Z,8.91
2018-11-27T08:04:39.828Z,8.96
2018-11-27T08:05:39.854Z,8.81
2018-11-27T08:06:39.859Z,8.81
2018-11-27T08:07:39.889Z,8.93
2018-11-27T08:08:39.921Z,9.04
2018-11-27T08:09:39.909Z,9.02
2018-11-27T08:10:39.974Z,8.88
2018-11-27T08:11:39.930Z,9.15
2018-11-27T08:12:39.945Z,9.12
2018-11-27T08:13:39.957Z,9.21
2018-11-27T08:14:39.983Z,9.24
2018-11-27T08:15:40.007Z,9.57
2018-11-27T08:16:40.001Z,9.70
2018-11-27T08:17:40.024Z,9.70
2018-11-27T08:18:40.036Z,9.68
2018-11-27T08:19:40.050Z,9.57
2018-11-27T08:20:40.076Z,9.46
2018-11-27T08:21:40.078Z,9.64
2018-11-27T08:22:40.099Z,9.38
2018-11-27T08:23:40.105Z,9.40
2018-11-27T08:24:40.118Z,9.49
2018-11-27T08:25:40.164Z,9.68
2018-11-27T08:26:40.146Z,9.68
2018-11-27T08:27:40.194Z,9.83
2018-11-27T08:28:40.177Z,9.79
2018-11-27T08:29:40.196Z,9.83
2018-11-27T08:30:40.218Z,9.70
2018-11-27T08:31:40.224Z,9.35
2018-11-27T08:32:40.237Z,9.38
2018-11-27T08:33:40.278Z,9.50
2018-11-27T08:34:40.273Z,9.23
2018-11-27T08:35:40.281Z,9.01
2018-11-27T08:36:40.316Z,9.15
2018-11-27T08:37:40.306Z,9.16
2018-11-27T08:38:40.364Z,9.38
2018-11-27T08:39:40.335Z,9.60
2018-11-27T08:40:40.356Z,9.61
2018-11-27T08:41:40.668Z,9.70
2018-11-27T08:42:40.402Z,9.63
2018-11-27T08:43:40.404Z,9.48
2018-11-27T08:44:40.408Z,9.21
2018-11-27T08:45:40.431Z,9.13
2018-11-27T08:46:40.453Z,9.27
2018-11-27T08:47:40.468Z,9.32
2018-11-27T08:48:40.479Z,9.48
2018-11-27T08:49:40.485Z,9.58
2018-11-27T08:50:40.502Z,9.67
2018-11-27T08:51:40.530Z,9.64
2018-11-27T08:52:40.534Z,9.57
2018-11-27T08:53:40.566Z,9.76
2018-11-27T08:54:40.569Z,9.76
2018-11-27T08:55:40.588Z,9.68
2018-11-27T08:56:40.593Z,9.70
2018-11-27T08:57:40.597Z,9.60
2018-11-27T08:58:40.620Z,9.32
2018-11-27T08:59:40.628Z,9.02
2018-11-27T09:00:40.651Z,9.20
2018-11-27T09:01:40.658Z,9.38
2018-11-27T09:02:40.680Z,9.40
2018-11-27T09:03:40.688Z,9.32
2018-11-27T09:04:40.710Z,9.56
2018-11-27T09:05:40.725Z,9.71
2018-11-27T09:06:40.800Z,9.49
2018-11-27T09:07:40.761Z,9.30
2018-11-27T09:08:40.783Z,9.32
2018-11-27T09:09:40.774Z,9.50
2018-11-27T09:10:40.786Z,9.71
2018-11-27T09:11:40.811Z,9.66
2018-11-27T09:12:40.824Z,9.70
2018-11-27T09:13:40.834Z,9.78
2018-11-27T09:14:40.850Z,9.68
2018-11-27T09:15:40.872Z,9.68
2018-11-27T09:16:40.894Z,9.71
2018-11-27T09:17:40.907Z,9.86
2018-11-27T09:18:40.909Z,9.73
2018-11-27T09:19:40.919Z,9.82
2018-11-27T09:20:40.933Z,9.81
2018-11-27T09:22:40.965Z,9.73
2018-11-27T09:23:41.120Z,9.81
2018-11-27T09:24:40.998Z,9.96
2018-11-27T09:25:41.015Z,9.83
2018-11-27T09:26:41.025Z,9.42
2018-11-27T09:27:41.050Z,9.25
2018-11-27T09:28:41.055Z,9.53
2018-11-27T09:29:41.062Z,9.48
2018-11-27T09:30:41.095Z,9.30
2018-11-27T09:31:41.095Z,9.23
2018-11-27T09:32:41.120Z,9.09
2018-11-27T09:33:41.126Z,9.04
2018-11-27T09:34:41.150Z,9.30
2018-11-27T09:35:41.161Z,9.38
2018-11-27T09:36:41.228Z,9.58
2018-11-27T09:37:41.180Z,9.43
2018-11-27T09:38:41.214Z,9.48
2018-11-27T09:39:41.223Z,9.58
2018-11-27T09:40:41.291Z,9.60
2018-11-27T09:41:41.237Z,9.66
2018-11-27T09:42:41.273Z,9.58
2018-11-27T09:43:41.271Z,9.68
2018-11-27T09:44:41.295Z,9.82
2018-11-27T09:45:41.301Z,9.79
2018-11-27T09:46:41.309Z,9.82
2018-11-27T09:47:41.335Z,9.61
2018-11-27T09:48:41.336Z,9.24
2018-11-27T09:49:41.369Z,9.56
2018-11-27T09:50:41.371Z,9.58
2018-11-27T09:51:41.397Z,9.56
2018-11-27T09:52:41.398Z,9.25
2018-11-27T09:53:41.417Z,9.58
2018-11-27T09:54:41.433Z,9.56
2018-11-27T09:55:41.447Z,9.63
2018-11-27T09:56:41.455Z,9.78
2018-11-27T09:57:41.485Z,9.83
2018-11-27T09:58:41.486Z,9.81
2018-11-27T09:59:41.506Z,9.79
2018-11-27T10:01:41.538Z,9.89
2018-11-27T10:03:41.560Z,9.91
2018-11-27T10:04:41.570Z,9.93
2018-11-27T10:05:41.609Z,9.94
2018-11-27T10:06:41.604Z,9.94
2018-11-27T10:07:41.621Z,9.71
2018-11-27T10:08:41.702Z,9.81
2018-11-27T10:09:41.659Z,9.78
2018-11-27T10:10:41.664Z,9.82
2018-11-27T10:11:42.650Z,9.93
2018-11-27T10:12:41.695Z,9.91
2018-11-27T10:13:41.706Z,9.68
2018-11-27T10:14:41.723Z,9.64
2018-11-27T10:15:41.737Z,9.68
2018-11-27T10:16:41.750Z,9.73
2018-11-27T10:17:41.766Z,9.81
2018-11-27T10:18:41.782Z,9.78
2018-11-27T10:19:41.794Z,9.83
2018-11-27T10:20:41.818Z,9.91
2018-11-27T10:21:41.841Z,9.63
2018-11-27T10:22:41.838Z,9.78
2018-11-27T10:23:41.864Z,9.83
2018-11-27T10:24:41.868Z,9.78
2018-11-27T10:25:41.898Z,9.93
2018-11-27T10:26:41.896Z,9.99
2018-11-27T10:27:41.920Z,9.96
2018-11-27T10:28:41.931Z,9.94
2018-11-27T10:29:41.949Z,9.40
2018-11-27T10:30:41.961Z,9.05
2018-11-27T10:31:41.969Z,9.24
2018-11-27T10:32:41.996Z,9.53
2018-11-27T10:33:42.009Z,9.32
2018-11-27T10:34:42.016Z,9.48
2018-11-27T10:35:42.024Z,9.38
2018-11-27T10:36:42.101Z,9.32
2018-11-27T10:37:42.056Z,9.20
2018-11-27T10:38:42.067Z,8.90
2018-11-27T10:39:42.085Z,9.15
2018-11-27T10:40:42.115Z,9.35
2018-11-27T10:41:42.107Z,9.46
2018-11-27T10:42:42.160Z,9.38
2018-11-27T10:43:42.154Z,9.24
2018-11-27T10:44:42.153Z,9.09
2018-11-27T10:45:42.175Z,9.06
2018-11-27T10:46:42.191Z,9.56
2018-11-27T10:47:42.208Z,9.68
2018-11-27T10:48:42.211Z,9.67
2018-11-27T10:49:42.227Z,9.67
2018-11-27T10:50:42.254Z,9.81
2018-11-27T10:51:42.258Z,9.78
2018-11-27T10:52:42.271Z,9.78
2018-11-27T10:53:42.316Z,9.82
2018-11-27T10:54:42.312Z,9.93
2018-11-27T10:55:42.322Z,9.97
2018-11-27T10:56:42.339Z,9.85
2018-11-27T10:57:42.341Z,9.46
2018-11-27T10:58:42.362Z,9.05
2018-11-27T10:59:42.399Z,8.97
2018-11-27T11:00:42.395Z,9.30
2018-11-27T11:01:42.403Z,9.57
2018-11-27T11:02:42.419Z,9.20
2018-11-27T11:03:42.436Z,8.91
2018-11-27T11:04:42.449Z,9.38
2018-11-27T11:05:42.462Z,9.67
2018-11-27T11:06:42.512Z,9.73
2018-11-27T11:07:42.498Z,9.83
2018-11-27T11:09:42.528Z,9.34
2018-11-27T11:10:42.550Z,9.64
2018-11-27T11:11:42.556Z,9.68
2018-11-27T11:12:42.570Z,9.83
2018-11-27T11:13:42.585Z,9.78
2018-11-27T11:14:42.605Z,9.71
2018-11-27T11:15:42.605Z,9.83
2018-11-27T11:16:42.625Z,9.97
2018-11-27T11:17:42.656Z,9.99
2018-11-27T11:18:42.657Z,9.96
2018-11-27T11:19:42.668Z,9.94
2018-11-27T11:20:42.693Z,9.82
2018-11-27T11:21:42.824Z,9.91
2018-11-27T11:22:42.711Z,9.96
2018-11-27T11:23:42.736Z,9.99
2018-11-27T11:24:42.741Z,10.03
2018-11-27T11:25:42.754Z,9.93
2018-11-27T11:26:42.779Z,9.93
2018-11-27T11:27:42.785Z,9.91
2018-11-27T11:28:42.802Z,9.91
2018-11-27T11:29:42.820Z,9.89
2018-11-27T11:30:42.823Z,9.93
2018-11-27T11:31:42.838Z,9.96
2018-11-27T11:32:42.858Z,9.96
2018-11-27T11:33:42.866Z,10.07
2018-11-27T11:34:42.883Z,9.97
2018-11-27T11:35:42.896Z,10.03
2018-11-27T11:36:42.909Z,9.97
2018-11-27T11:37:42.948Z,9.94
2018-11-27T11:38:42.973Z,10.03
2018-11-27T11:39:42.959Z,10.06
2018-11-27T11:40:42.965Z,9.97
2018-11-27T11:41:42.983Z,9.91
2018-11-27T11:42:42.997Z,9.93
2018-11-27T11:43:43.029Z,9.82
2018-11-27T11:44:43.023Z,9.96
2018-11-27T11:45:43.034Z,10.03
2018-11-27T11:46:43.068Z,9.94
2018-11-27T11:47:43.082Z,10.00
2018-11-27T11:48:43.086Z,10.10
2018-11-27T11:49:43.095Z,9.78
2018-11-27T11:50:43.112Z,9.70
2018-11-27T11:51:43.146Z,9.81
2018-11-27T11:52:45.409Z,9.78
2018-11-27T11:53:43.160Z,9.82
2018-11-27T11:54:43.175Z,9.68
2018-11-27T11:55:43.278Z,9.75
2018-11-27T11:56:43.192Z,9.68
2018-11-27T11:57:43.228Z,9.70
2018-11-27T11:58:43.238Z,9.82
2018-11-27T11:59:43.245Z,9.85
2018-11-27T12:00:43.255Z,9.89
2018-11-27T12:01:43.274Z,9.91
2018-11-27T12:02:43.306Z,9.93
2018-11-27T12:03:43.306Z,9.73
2018-11-27T12:04:43.321Z,9.85
2018-11-27T12:05:43.337Z,9.91
2018-11-27T12:06:43.401Z,9.97
2018-11-27T12:07:43.358Z,9.94
2018-11-27T12:08:43.377Z,9.94
2018-11-27T12:09:43.383Z,9.99
2018-11-27T12:10:43.406Z,9.94
2018-11-27T12:11:43.415Z,9.81
2018-11-27T12:12:43.433Z,9.73
2018-11-27T12:14:43.455Z,9.94
2018-11-27T12:15:43.472Z,9.66
2018-11-27T12:16:43.496Z,9.28
2018-11-27T12:17:43.506Z,9.46
2018-11-27T12:18:43.517Z,9.73
2018-11-27T12:19:43.530Z,9.81
2018-11-27T12:20:43.569Z,9.81
2018-11-27T12:21:43.568Z,9.86
2018-11-27T12:22:43.578Z,9.81
2018-11-27T12:23:43.603Z,9.93
2018-11-27T12:24:43.630Z,9.81
2018-11-27T12:25:43.618Z,9.85
2018-11-27T12:26:43.637Z,9.97
2018-11-27T12:27:43.660Z,9.97
2018-11-27T12:28:44.794Z,9.96
2018-11-27T12:29:43.676Z,9.96
2018-11-27T12:30:43.691Z,9.94
2018-11-27T12:31:43.705Z,9.99
2018-11-27T12:32:43.724Z,9.99
2018-11-27T12:33:43.739Z,10.03
2018-11-27T12:34:43.760Z,9.91
2018-11-27T12:35:43.769Z,9.78
2018-11-27T12:36:43.894Z,9.56
2018-11-27T12:37:43.797Z,9.70
2018-11-27T12:38:43.809Z,9.76
2018-11-27T12:39:43.845Z,9.68
2018-11-27T12:40:43.855Z,9.61
2018-11-27T12:41:43.849Z,9.81
2018-11-27T12:42:43.878Z,9.86
2018-11-27T12:43:43.891Z,9.96
2018-11-27T12:44:43.895Z,9.73
2018-11-27T12:45:43.908Z,9.94
2018-11-27T12:46:43.925Z,9.96
2018-11-27T12:47:43.941Z,9.96
2018-11-27T12:48:43.951Z,10.01
2018-11-27T12:49:43.995Z,10.04
2018-11-27T12:50:44.003Z,10.15
2018-11-27T12:51:44.089Z,10.09
2018-11-27T12:52:44.027Z,10.00
2018-11-27T12:53:44.066Z,9.71
2018-11-27T12:54:44.035Z,9.73
2018-11-27T12:55:44.069Z,9.61
2018-11-27T12:56:44.080Z,9.70
2018-11-27T12:57:44.152Z,9.81
2018-11-27T12:58:44.097Z,9.68
2018-11-27T12:59:44.126Z,9.67
2018-11-27T13:00:44.129Z,9.57
2018-11-27T13:01:44.150Z,9.70
2018-11-27T13:02:44.176Z,9.86
2018-11-27T13:03:44.170Z,9.94
2018-11-27T13:04:44.183Z,9.68
2018-11-27T13:05:44.198Z,9.76
2018-11-27T13:06:44.232Z,9.71
2018-11-27T13:07:44.226Z,9.93
2018-11-27T13:08:44.297Z,9.99
2018-11-27T13:09:44.270Z,9.97
2018-11-27T13:10:44.272Z,9.94
2018-11-27T13:12:44.311Z,10.10
2018-11-27T13:13:44.315Z,9.94
2018-11-27T13:14:44.334Z,9.89
2018-11-27T13:15:44.348Z,9.68
2018-11-27T13:16:44.376Z,9.66
2018-11-27T13:17:44.380Z,9.81
2018-11-27T13:18:44.392Z,9.81
2018-11-27T13:19:44.400Z,9.83
2018-11-27T13:20:44.413Z,9.83
2018-11-27T13:21:44.439Z,9.85
2018-11-27T13:22:44.447Z,9.91
2018-11-27T13:23:44.460Z,9.70
2018-11-27T13:24:44.475Z,9.79
2018-11-27T13:25:44.490Z,9.97
2018-11-27T13:26:44.513Z,9.97
2018-11-27T13:27:44.524Z,9.89
2018-11-27T13:28:44.531Z,9.93